createdAt,value
2023-06-04T00:01:16.916Z,11.70
2023-06-04T00:03:46.647Z,9.40
2023-06-04T00:06:15.122Z,10.30
2023-06-04T00:13:45.743Z,10.00
2023-06-04T00:16:14.565Z,11.10
2023-06-04T00:18:44.121Z,10.80
2023-06-04T00:21:13.419Z,11.00
2023-06-04T00:23:42.799Z,9.30
2023-06-04T00:26:12.217Z,9.40
2023-06-04T00:28:47.244Z,10.70
2023-06-04T00:31:18.091Z,10.50
2023-06-04T00:33:46.509Z,9.50
2023-06-04T00:36:17.549Z,8.70
2023-06-04T00:38:47.001Z,9.40
2023-06-04T00:41:16.448Z,8.40
2023-06-04T00:43:46.934Z,9.90
2023-06-04T00:48:48.660Z,10.60
2023-06-04T00:51:18.516Z,9.20
2023-06-04T00:56:17.033Z,10.50
2023-06-04T00:58:48.627Z,8.90
2023-06-04T01:01:30.375Z,10.70
2023-06-04T01:04:02.168Z,8.40
2023-06-04T01:06:41.481Z,9.20
2023-06-04T01:09:14.278Z,9.00
2023-06-04T01:11:42.636Z,8.10
2023-06-04T01:14:13.534Z,10.10
2023-06-04T01:16:48.717Z,9.80
2023-06-04T01:20:10.845Z,10.10
2023-06-04T01:22:45.977Z,7.50
2023-06-04T01:25:24.868Z,8.60
2023-06-04T01:27:59.334Z,7.70
2023-06-04T01:30:32.903Z,8.20
2023-06-04T01:33:02.785Z,9.00
2023-06-04T01:35:33.260Z,8.40
2023-06-04T01:38:02.668Z,8.20
2023-06-04T01:40:31.837Z,9.70
2023-06-04T01:43:02.156Z,10.10
2023-06-04T01:45:33.554Z,9.80
2023-06-04T01:48:06.261Z,8.10
2023-06-04T01:50:36.981Z,9.30
2023-06-04T01:53:06.476Z,7.50
2023-06-04T01:55:35.643Z,8.10
2023-06-04T01:58:04.994Z,8.80
2023-06-04T02:00:36.071Z,8.10
2023-06-04T02:03:05.574Z,7.40
2023-06-04T02:05:35.171Z,7.30
2023-06-04T02:08:05.893Z,8.50
2023-06-04T02:10:35.489Z,7.80
2023-06-04T02:13:05.836Z,9.30
2023-06-04T02:15:37.983Z,8.70
2023-06-04T02:18:19.058Z,8.30
2023-06-04T02:20:49.530Z,7.80
2023-06-04T02:23:21.851Z,8.50
2023-06-04T02:25:51.477Z,8.80
2023-06-04T02:28:19.865Z,8.20
2023-06-04T02:30:50.683Z,8.70
2023-06-04T02:35:51.053Z,8.30
2023-06-04T02:38:21.703Z,7.00
2023-06-04T02:40:50.078Z,7.90
2023-06-04T02:45:48.226Z,7.50
2023-06-04T02:48:19.194Z,9.00
2023-06-04T02:50:47.475Z,9.00
2023-06-04T02:53:18.419Z,6.80
2023-06-04T02:55:48.084Z,7.00
2023-06-04T02:58:18.348Z,7.40
2023-06-04T03:00:47.765Z,8.80
2023-06-04T03:03:18.815Z,7.60
2023-06-04T03:05:48.601Z,6.60
2023-06-04T03:08:18.179Z,9.00
2023-06-04T03:10:47.577Z,6.90
2023-06-04T03:15:45.785Z,9.30
2023-06-04T03:18:14.004Z,9.00
2023-06-04T03:20:44.991Z,7.80
2023-06-04T03:23:14.561Z,7.40
2023-06-04T03:25:43.946Z,8.20
2023-06-04T03:28:14.708Z,7.90
2023-06-04T03:30:43.640Z,8.90
2023-06-04T03:33:13.177Z,7.70
2023-06-04T03:35:44.349Z,8.70
2023-06-04T03:40:42.893Z,8.70
2023-06-04T03:43:13.196Z,8.10
2023-06-04T03:45:44.294Z,7.40
2023-06-04T03:48:14.425Z,9.80
2023-06-04T03:50:47.129Z,8.00
2023-06-04T03:53:18.683Z,8.50
2023-06-04T03:55:47.122Z,8.60
2023-06-04T03:58:17.080Z,9.10
2023-06-04T04:03:20.859Z,9.90
2023-06-04T04:05:52.495Z,9.00
2023-06-04T04:08:22.264Z,8.60
2023-06-04T04:13:23.061Z,10.60
2023-06-04T04:15:55.244Z,9.00
2023-06-04T04:18:24.935Z,8.80
2023-06-04T04:20:54.639Z,9.00
2023-06-04T04:23:24.650Z,8.80
2023-06-04T04:28:29.617Z,10.50
2023-06-04T04:30:58.786Z,9.40
2023-06-04T04:33:28.952Z,9.70
2023-06-04T04:36:00.320Z,11.10
2023-06-04T04:38:33.592Z,10.00
2023-06-04T04:41:05.001Z,10.50
2023-06-04T04:43:39.619Z,10.60
2023-06-04T04:46:27.571Z,10.90
2023-06-04T04:48:58.287Z,12.60
2023-06-04T04:51:27.986Z,11.50
2023-06-04T04:53:59.795Z,13.00
2023-06-04T04:56:28.200Z,13.30
2023-06-04T04:58:56.791Z,12.80
2023-06-04T05:01:27.964Z,12.10
2023-06-04T05:06:28.976Z,12.70
2023-06-04T05:08:57.303Z,12.40
2023-06-04T05:13:56.598Z,12.70
2023-06-04T05:16:30.214Z,14.10
2023-06-04T05:18:59.268Z,13.80
2023-06-04T05:21:36.374Z,14.30
2023-06-04T05:24:08.109Z,14.80
2023-06-04T05:26:41.774Z,15.80
2023-06-04T05:29:17.745Z,15.10
2023-06-04T05:31:48.056Z,15.90
2023-06-04T05:34:23.642Z,15.30
2023-06-04T05:36:55.198Z,15.80
2023-06-04T05:39:25.715Z,16.70
2023-06-04T05:42:02.826Z,16.30
2023-06-04T05:49:37.675Z,17.30
2023-06-04T05:52:09.108Z,17.90
2023-06-04T05:54:39.374Z,17.30
2023-06-04T05:57:09.551Z,17.90
2023-06-04T05:59:39.182Z,17.80
2023-06-04T06:02:14.668Z,18.20
2023-06-04T06:04:45.156Z,18.30
2023-06-04T06:07:16.632Z,18.10
2023-06-04T06:09:46.478Z,18.10
2023-06-04T06:12:14.841Z,18.40
2023-06-04T06:14:44.642Z,18.30
2023-06-04T06:17:14.307Z,18.70
2023-06-04T06:22:16.565Z,19.40
2023-06-04T06:24:45.161Z,19.00
2023-06-04T06:29:45.369Z,18.90
2023-06-04T06:32:15.136Z,19.20
2023-06-04T06:37:13.205Z,19.10
2023-06-04T06:39:45.314Z,20.10
2023-06-04T06:42:13.792Z,19.90
2023-06-04T06:44:47.673Z,18.90
2023-06-04T06:47:17.385Z,20.00
2023-06-04T06:49:48.215Z,21.20
2023-06-04T06:52:20.426Z,20.80
2023-06-04T06:54:51.522Z,21.00
2023-06-04T06:57:21.434Z,21.10
2023-06-04T06:59:54.241Z,22.40
2023-06-04T07:02:24.517Z,21.40
2023-06-04T07:04:54.114Z,21.70
2023-06-04T07:07:23.746Z,21.60
2023-06-04T07:09:55.857Z,21.90
2023-06-04T07:12:26.506Z,21.00
2023-06-04T07:14:54.764Z,22.30
2023-06-04T07:17:23.194Z,22.50
2023-06-04T07:19:52.951Z,22.50
2023-06-04T07:22:22.438Z,22.90
2023-06-04T07:24:51.604Z,22.90
2023-06-04T07:27:24.491Z,23.10
2023-06-04T07:29:53.142Z,23.30
2023-06-04T07:32:23.225Z,23.20
2023-06-04T07:34:52.989Z,23.10
2023-06-04T07:37:21.297Z,23.20
2023-06-04T07:39:50.851Z,23.20
2023-06-04T07:42:21.958Z,23.50
2023-06-04T07:44:52.085Z,25.00
2023-06-04T07:47:21.559Z,24.00
2023-06-04T07:50:01.695Z,24.10
2023-06-04T07:52:33.292Z,25.10
2023-06-04T07:55:05.280Z,24.70
2023-06-04T07:57:37.216Z,25.40
2023-06-04T08:00:11.379Z,25.40
2023-06-04T08:02:41.707Z,25.10
2023-06-04T08:05:12.187Z,25.60
2023-06-04T08:07:40.493Z,25.10
2023-06-04T08:10:11.315Z,25.20
2023-06-04T08:12:43.301Z,25.40
2023-06-04T08:15:13.493Z,25.50
2023-06-04T08:17:42.207Z,25.70
2023-06-04T08:20:12.511Z,25.30
2023-06-04T08:22:44.253Z,25.10
2023-06-04T08:25:12.533Z,25.30
2023-06-04T08:27:45.270Z,25.00
2023-06-04T08:30:13.952Z,25.10
2023-06-04T08:32:44.907Z,25.80
2023-06-04T08:35:14.837Z,25.20
2023-06-04T08:37:44.434Z,25.20
2023-06-04T08:40:14.600Z,25.30
2023-06-04T08:42:47.983Z,26.40
2023-06-04T08:45:18.015Z,26.40
2023-06-04T08:47:53.350Z,26.60
2023-06-04T08:50:27.407Z,26.10
2023-06-04T08:52:58.431Z,25.40
2023-06-04T08:55:28.218Z,25.30
2023-06-04T08:57:59.486Z,25.80
2023-06-04T09:00:29.264Z,25.10
2023-06-04T09:02:59.496Z,25.30
2023-06-04T09:05:30.316Z,25.30
2023-06-04T09:08:03.994Z,25.70
2023-06-04T09:10:34.002Z,25.50
2023-06-04T09:13:08.954Z,25.80
2023-06-04T09:15:39.143Z,25.80
2023-06-04T09:18:09.412Z,25.90
2023-06-04T09:20:37.798Z,26.00
2023-06-04T09:23:16.979Z,25.80
2023-06-04T09:25:45.998Z,26.00
2023-06-04T09:28:17.746Z,26.40
2023-06-04T09:30:54.289Z,26.20
2023-06-04T09:33:22.813Z,26.20
2023-06-04T09:35:59.863Z,26.90
2023-06-04T09:38:36.873Z,26.50
2023-06-04T09:41:08.754Z,25.40
2023-06-04T09:43:38.850Z,25.90
2023-06-04T09:46:13.524Z,25.70
2023-06-04T09:48:43.075Z,25.30
2023-06-04T09:51:14.338Z,26.20
2023-06-04T09:53:43.252Z,26.50
2023-06-04T09:56:12.379Z,25.30
2023-06-04T09:58:45.858Z,26.00
2023-06-04T10:01:16.916Z,26.20
2023-06-04T10:03:50.088Z,27.00
2023-06-04T10:06:21.769Z,27.20
2023-06-04T10:08:53.599Z,26.90
2023-06-04T10:11:34.975Z,27.20
2023-06-04T10:14:12.486Z,27.80
2023-06-04T10:16:42.735Z,27.30
2023-06-04T10:19:12.807Z,27.10
2023-06-04T10:21:42.345Z,27.10
2023-06-04T10:24:12.536Z,27.20
2023-06-04T10:26:42.074Z,26.90
2023-06-04T10:29:16.204Z,27.70
2023-06-04T10:31:46.123Z,27.40
2023-06-04T10:34:16.686Z,27.20
2023-06-04T10:36:46.985Z,27.20
2023-06-04T10:39:27.260Z,27.10
2023-06-04T10:42:04.905Z,27.70
2023-06-04T10:44:46.561Z,28.40
2023-06-04T10:47:24.231Z,27.60
2023-06-04T10:49:54.727Z,27.70
2023-06-04T10:52:25.821Z,27.80
2023-06-04T10:55:06.117Z,28.00
2023-06-04T10:57:37.118Z,28.00
2023-06-04T11:00:12.622Z,28.20
2023-06-04T11:02:53.635Z,28.40
2023-06-04T11:05:22.545Z,28.40
2023-06-04T11:07:52.450Z,28.20
2023-06-04T11:10:34.169Z,28.70
2023-06-04T11:13:06.148Z,29.10
2023-06-04T11:15:43.465Z,28.20
2023-06-04T11:18:17.260Z,28.00
2023-06-04T11:20:47.254Z,28.40
2023-06-04T11:23:17.356Z,29.40
2023-06-04T11:25:47.909Z,28.50
2023-06-04T11:28:19.449Z,28.70
2023-06-04T11:31:00.522Z,29.30
2023-06-04T11:33:28.930Z,29.20
2023-06-04T11:35:58.498Z,29.40
2023-06-04T11:38:28.054Z,29.40
2023-06-04T11:41:01.421Z,29.40
2023-06-04T11:43:31.400Z,29.60
2023-06-04T11:46:11.023Z,29.70
2023-06-04T11:48:42.994Z,29.50
2023-06-04T11:51:12.545Z,29.20
2023-06-04T11:53:42.870Z,29.30
2023-06-04T11:56:12.818Z,29.20
2023-06-04T11:58:41.636Z,28.80
2023-06-04T12:01:15.612Z,28.90
2023-06-04T12:03:45.243Z,28.90
2023-06-04T12:06:19.273Z,29.10
2023-06-04T12:08:49.594Z,30.10
2023-06-04T12:11:34.785Z,29.50
2023-06-04T12:14:06.797Z,29.50
2023-06-04T12:16:39.310Z,29.20
2023-06-04T12:19:11.000Z,29.10
2023-06-04T12:21:41.425Z,29.30
2023-06-04T12:24:13.032Z,29.80
2023-06-04T12:26:49.127Z,29.80
2023-06-04T12:29:21.539Z,29.70
2023-06-04T12:32:03.068Z,30.10
2023-06-04T12:34:33.134Z,30.70
2023-06-04T12:37:04.217Z,29.60
2023-06-04T12:39:34.310Z,29.60
2023-06-04T12:42:03.856Z,29.80
2023-06-04T12:44:35.631Z,29.70
2023-06-04T12:47:06.402Z,29.60
2023-06-04T12:49:36.634Z,29.50
2023-06-04T12:52:07.029Z,29.60
2023-06-04T12:54:36.719Z,29.70
2023-06-04T12:57:06.582Z,30.00
2023-06-04T12:59:37.345Z,30.10
2023-06-04T13:02:07.978Z,30.30
2023-06-04T13:04:36.849Z,30.30
2023-06-04T13:07:06.350Z,30.60
2023-06-04T13:09:36.203Z,30.60
2023-06-04T13:12:06.139Z,30.20
2023-06-04T13:14:35.701Z,30.10
2023-06-04T13:17:18.014Z,29.90
2023-06-04T13:19:53.026Z,29.70
2023-06-04T13:22:23.795Z,28.80
2023-06-04T13:24:52.360Z,28.90
2023-06-04T13:27:20.829Z,29.00
2023-06-04T13:29:50.476Z,29.40
2023-06-04T13:32:20.358Z,29.70
2023-06-04T13:34:51.316Z,29.70
2023-06-04T13:37:19.588Z,29.70
2023-06-04T13:39:50.413Z,29.90
2023-06-04T13:42:19.045Z,30.00
2023-06-04T13:44:49.385Z,30.00
2023-06-04T13:47:19.322Z,30.00
2023-06-04T13:49:48.912Z,29.80
2023-06-04T13:52:19.786Z,29.70
2023-06-04T13:54:48.195Z,29.70
2023-06-04T13:57:17.160Z,29.60
2023-06-04T13:59:48.220Z,29.80
2023-06-04T14:02:17.880Z,29.80
2023-06-04T14:04:50.435Z,29.80
2023-06-04T14:07:22.212Z,29.70
2023-06-04T14:09:55.420Z,29.90
2023-06-04T14:12:26.207Z,29.90
2023-06-04T14:14:55.787Z,29.80
2023-06-04T14:17:27.029Z,30.00
2023-06-04T14:19:56.924Z,29.90
2023-06-04T14:22:27.837Z,29.80
2023-06-04T14:24:56.175Z,29.60
2023-06-04T14:27:27.157Z,29.90
2023-06-04T14:29:55.339Z,29.50
2023-06-04T14:32:24.880Z,29.60
2023-06-04T14:34:53.545Z,29.80
2023-06-04T14:37:24.515Z,29.50
2023-06-04T14:39:56.828Z,29.50
2023-06-04T14:42:26.345Z,29.50
2023-06-04T14:44:55.963Z,29.60
2023-06-04T14:47:25.906Z,29.50
2023-06-04T14:49:55.588Z,29.60
2023-06-04T14:52:23.843Z,29.70
2023-06-04T14:54:54.131Z,29.60
2023-06-04T14:57:26.460Z,30.20
2023-06-04T14:59:56.034Z,29.80
2023-06-04T15:02:25.671Z,30.00
2023-06-04T15:04:56.441Z,29.80
2023-06-04T15:07:25.959Z,29.60
2023-06-04T15:09:55.574Z,29.60
2023-06-04T15:12:26.765Z,29.30
2023-06-04T15:14:56.556Z,29.20
2023-06-04T15:17:27.768Z,29.20
2023-06-04T15:19:57.238Z,29.00
2023-06-04T15:22:28.400Z,28.90
2023-06-04T15:24:58.044Z,28.70
2023-06-04T15:27:30.436Z,29.00
2023-06-04T15:29:59.225Z,29.00
2023-06-04T15:32:28.757Z,29.40
2023-06-04T15:34:59.243Z,29.50
2023-06-04T15:37:29.937Z,29.40
2023-06-04T15:40:00.757Z,29.20
2023-06-04T15:42:31.609Z,29.10
2023-06-04T15:45:01.320Z,28.80
2023-06-04T15:47:29.767Z,28.30
2023-06-04T15:49:59.283Z,27.70
2023-06-04T15:52:27.672Z,28.90
2023-06-04T15:54:56.335Z,27.90
2023-06-04T15:57:26.384Z,28.10
2023-06-04T15:59:58.461Z,28.70
2023-06-04T16:02:27.531Z,28.20
2023-06-04T16:04:56.711Z,28.20
2023-06-04T16:07:26.206Z,28.70
2023-06-04T16:09:56.290Z,28.10
2023-06-04T16:12:24.675Z,28.50
2023-06-04T16:14:54.125Z,27.50
2023-06-04T16:17:25.018Z,27.70
2023-06-04T16:19:57.412Z,27.40
2023-06-04T16:22:28.609Z,27.30
2023-06-04T16:24:57.424Z,27.10
2023-06-04T16:27:26.019Z,26.70
2023-06-04T16:29:55.675Z,27.20
2023-06-04T16:32:26.716Z,26.80
2023-06-04T16:34:55.323Z,27.10
2023-06-04T16:37:24.766Z,27.00
2023-06-04T16:39:54.675Z,26.90
2023-06-04T16:42:23.182Z,27.10
2023-06-04T16:44:52.713Z,26.90
2023-06-04T16:47:22.517Z,26.90
2023-06-04T16:49:53.233Z,26.80
2023-06-04T16:52:22.872Z,26.70
2023-06-04T16:57:22.381Z,26.70
2023-06-04T16:59:50.847Z,27.10
2023-06-04T17:02:20.442Z,26.40
2023-06-04T17:04:49.324Z,26.30
2023-06-04T17:07:20.143Z,26.20
2023-06-04T17:09:51.098Z,26.20
2023-06-04T17:12:20.742Z,25.90
2023-06-04T17:14:50.236Z,26.00
2023-06-04T17:19:51.064Z,25.10
2023-06-04T17:22:22.113Z,26.00
2023-06-04T17:24:53.099Z,25.40
2023-06-04T17:27:21.366Z,25.20
2023-06-04T17:32:19.836Z,25.10
2023-06-04T17:34:52.509Z,25.20
2023-06-04T17:37:22.039Z,24.80
2023-06-04T17:39:50.292Z,25.10
2023-06-04T17:42:18.508Z,24.80
2023-06-04T17:44:47.035Z,24.80
2023-06-04T17:47:16.721Z,24.60
2023-06-04T17:49:44.918Z,24.50
2023-06-04T17:52:13.442Z,24.40
2023-06-04T17:54:43.139Z,24.10
2023-06-04T17:59:42.581Z,24.00
2023-06-04T18:02:12.221Z,23.60
2023-06-04T18:04:40.861Z,23.50
2023-06-04T18:07:09.204Z,23.20
2023-06-04T18:09:37.477Z,23.30
2023-06-04T18:12:12.848Z,22.90
2023-06-04T18:14:42.664Z,22.30
2023-06-04T18:17:12.101Z,22.00
2023-06-04T18:19:41.902Z,21.70
2023-06-04T18:24:41.435Z,21.60
2023-06-04T18:27:12.240Z,20.80
2023-06-04T18:29:42.519Z,20.30
2023-06-04T18:32:10.990Z,20.10
2023-06-04T18:34:40.520Z,20.60
2023-06-04T18:37:08.710Z,20.90
2023-06-04T18:39:39.622Z,19.40
2023-06-04T18:42:28.703Z,19.50
2023-06-04T18:45:05.726Z,19.20
2023-06-04T18:50:06.804Z,21.80
2023-06-04T18:52:40.274Z,18.90
2023-06-04T18:55:11.110Z,19.60
2023-06-04T18:57:39.823Z,18.70
2023-06-04T19:00:13.686Z,18.40
2023-06-04T19:05:12.532Z,18.30
2023-06-04T19:07:43.291Z,18.10
2023-06-04T19:10:13.974Z,18.50
2023-06-04T19:15:18.022Z,17.80
2023-06-04T19:17:46.357Z,17.50
2023-06-04T19:20:19.537Z,17.00
2023-06-04T19:30:26.849Z,17.30
2023-06-04T19:32:55.289Z,18.10
2023-06-04T19:35:25.216Z,17.40
2023-06-04T19:42:54.104Z,17.10
2023-06-04T19:45:26.780Z,15.90
2023-06-04T19:47:55.270Z,15.70
2023-06-04T19:55:26.052Z,15.40
2023-06-04T19:57:58.020Z,15.60
2023-06-04T20:00:28.908Z,15.70
2023-06-04T20:02:59.994Z,16.10
2023-06-04T20:05:28.229Z,16.30
2023-06-04T20:10:28.260Z,16.00
2023-06-04T20:12:57.732Z,16.20
2023-06-04T20:15:28.545Z,15.90
2023-06-04T20:23:01.400Z,15.50
2023-06-04T20:25:32.065Z,15.40
2023-06-04T20:28:00.857Z,17.10
2023-06-04T20:30:33.677Z,15.30
2023-06-04T20:38:04.844Z,15.40
2023-06-04T20:40:34.523Z,16.20
2023-06-04T20:43:04.214Z,16.10
2023-06-04T20:45:36.708Z,15.30
2023-06-04T20:48:05.336Z,15.20
2023-06-04T20:53:03.936Z,15.10
2023-06-04T20:55:36.139Z,15.40
2023-06-04T20:58:06.920Z,14.90
2023-06-04T21:00:37.874Z,15.50
2023-06-04T21:03:06.465Z,16.40
2023-06-04T21:05:35.426Z,15.10
2023-06-04T21:08:05.165Z,16.40
2023-06-04T21:15:33.842Z,15.10
2023-06-04T21:18:05.133Z,14.80
2023-06-04T21:20:36.234Z,15.40
2023-06-04T21:23:07.047Z,14.20
2023-06-04T21:30:35.721Z,15.20
2023-06-04T21:33:09.059Z,14.80
2023-06-04T21:35:39.052Z,14.00
2023-06-04T21:38:08.522Z,15.70
2023-06-04T21:40:39.403Z,15.30
2023-06-04T21:43:07.757Z,13.90
2023-06-04T21:45:38.059Z,15.70
2023-06-04T21:48:09.595Z,14.50
2023-06-04T21:50:39.332Z,13.60
2023-06-04T21:55:38.678Z,13.60
2023-06-04T21:58:09.108Z,13.60
2023-06-04T22:00:37.490Z,14.20
2023-06-04T22:03:06.021Z,14.30
2023-06-04T22:05:36.489Z,13.20
2023-06-04T22:08:07.782Z,15.30
2023-06-04T22:13:06.268Z,15.00
2023-06-04T22:15:36.278Z,13.30
2023-06-04T22:18:06.523Z,14.70
2023-06-04T22:20:37.353Z,14.60
2023-06-04T22:23:05.951Z,13.00
2023-06-04T22:25:34.186Z,13.00
2023-06-04T22:30:33.620Z,13.30
2023-06-04T22:35:33.695Z,13.90
2023-06-04T22:38:04.743Z,13.20
2023-06-04T22:43:04.462Z,14.80
2023-06-04T22:48:04.004Z,14.30
2023-06-04T22:53:02.650Z,14.00
2023-06-04T22:55:35.786Z,13.30
2023-06-04T22:58:05.431Z,14.10
2023-06-04T23:00:35.067Z,12.60
2023-06-04T23:05:36.571Z,14.40
2023-06-04T23:08:06.319Z,14.00
2023-06-04T23:10:39.504Z,12.50
2023-06-04T23:13:07.812Z,12.60
2023-06-04T23:15:37.413Z,12.60
2023-06-04T23:18:07.612Z,14.10
2023-06-04T23:20:37.146Z,13.80
2023-06-04T23:23:06.702Z,13.80
2023-06-04T23:25:37.495Z,12.50
2023-06-04T23:28:09.090Z,12.20
2023-06-04T23:30:38.580Z,13.70
2023-06-04T23:33:09.313Z,11.60
2023-06-04T23:35:37.674Z,12.50
2023-06-04T23:38:08.430Z,13.30
2023-06-04T23:43:10.259Z,12.10
2023-06-04T23:45:40.060Z,12.70
2023-06-04T23:48:10.106Z,12.70
2023-06-04T23:50:39.613Z,11.60
2023-06-04T23:58:13.034Z,11.70
